Time;durP1;ratioP1;P1;durP2;ratioP2;P2;SDS_P1;SDS_P2;PMS_P1;PMS_P2;Temp;Humidity;BMP_temperature;BMP_pressure;BME280_temperature;BME280_humidity;BME280_pressure;Samples;Min_cycle;Max_cycle;Signal;HPM_P1;HPM_P2
2022/09/06 00:01:38;;;;;;;7.50;5.38;;;20.60;99.90;;;;;;5033451;28;20067;-75
2022/09/06 00:04:03;;;;;;;6.00;4.88;;;20.70;99.90;;;;;;5039609;28;20027;-76
2022/09/06 00:06:29;;;;;;;7.05;4.95;;;20.80;99.90;;;;;;5035672;28;20874;-75
2022/09/06 00:08:55;;;;;;;7.90;5.38;;;20.90;99.90;;;;;;5050626;28;20123;-75
2022/09/06 00:11:20;;;;;;;8.77;5.63;;;20.80;99.90;;;;;;5033666;28;20469;-75
2022/09/06 00:13:47;;;;;;;7.28;5.25;;;20.80;99.90;;;;;;5044335;28;20028;-75
2022/09/06 00:16:16;;;;;;;6.50;4.55;;;20.90;99.90;;;;;;5038112;28;20029;-75
2022/09/06 00:18:43;;;;;;;6.90;5.00;;;20.70;99.90;;;;;;5029048;28;20034;-75
2022/09/06 00:21:20;;;;;;;7.15;5.25;;;20.80;99.90;;;;;;5040482;28;20021;-75
2022/09/06 00:23:46;;;;;;;7.20;4.72;;;20.70;99.90;;;;;;5045244;28;20048;-75
2022/09/06 00:26:12;;;;;;;6.47;5.10;;;20.70;99.90;;;;;;5031546;28;20029;-76
2022/09/06 00:28:39;;;;;;;9.02;4.78;;;20.70;99.90;;;;;;5049415;28;20032;-76
2022/09/06 00:31:15;;;;;;;7.53;5.18;;;20.70;99.90;;;;;;5033220;28;20444;-75
2022/09/06 00:33:41;;;;;;;7.40;5.10;;;20.70;99.90;;;;;;5033811;28;20029;-75
2022/09/06 00:36:08;;;;;;;8.68;5.35;;;20.60;99.90;;;;;;5033147;28;20483;-75
2022/09/06 00:38:34;;;;;;;10.20;5.00;;;20.50;99.90;;;;;;5034495;28;20108;-75
2022/09/06 00:40:59;;;;;;;8.80;5.13;;;20.50;99.90;;;;;;5032280;28;20041;-75
2022/09/06 00:43:25;;;;;;;6.75;4.57;;;20.50;99.90;;;;;;5054458;28;20033;-75
2022/09/06 00:45:52;;;;;;;7.95;5.15;;;20.50;99.90;;;;;;5051482;28;20068;-75
2022/09/06 00:48:20;;;;;;;6.38;5.15;;;20.50;99.90;;;;;;5038700;28;20041;-75
2022/09/06 00:50:48;;;;;;;7.97;5.20;;;20.50;99.90;;;;;;5031260;28;20025;-75
2022/09/06 00:53:15;;;;;;;7.88;5.43;;;20.40;99.90;;;;;;5051915;28;20025;-75
2022/09/06 00:55:41;;;;;;;8.65;5.35;;;20.50;99.90;;;;;;5044606;28;20481;-76
2022/09/06 00:58:08;;;;;;;9.63;5.65;;;20.50;99.90;;;;;;5040190;28;20166;-75
2022/09/06 01:00:34;;;;;;;6.93;5.45;;;20.60;99.90;;;;;;5047301;28;20057;-75
2022/09/06 01:03:00;;;;;;;8.02;5.70;;;20.60;99.90;;;;;;5050784;28;20106;-75
2022/09/06 01:05:49;;;;;;;8.32;5.03;;;20.50;99.90;;;;;;5038214;28;20033;-75
2022/09/06 01:08:42;;;;;;;9.27;5.55;;;20.50;99.90;;;;;;5041215;28;20037;-75
2022/09/06 01:11:26;;;;;;;7.93;5.10;;;20.40;99.90;;;;;;5034980;28;20068;-76
2022/09/06 01:14:01;;;;;;;;;;;20.30;99.90;;;;;;5046129;28;20029;-75
2022/09/06 01:16:44;;;;;;;9.98;5.63;;;20.30;99.90;;;;;;5035989;28;19909;-75
2022/09/06 01:19:25;;;;;;;8.25;6.47;;;20.10;99.90;;;;;;5034369;28;20557;-75
2022/09/06 01:21:59;;;;;;;7.95;5.78;;;20.10;99.90;;;;;;5036494;28;20057;-75
2022/09/06 01:24:54;;;;;;;6.55;5.20;;;20.10;99.90;;;;;;5034212;28;20061;-75
2022/09/06 01:27:51;;;;;;;8.45;5.53;;;20.10;99.90;;;;;;5031058;28;20109;-75
2022/09/06 01:30:19;;;;;;;9.20;5.13;;;20.00;99.90;;;;;;5039121;28;20036;-75
2022/09/06 01:33:12;;;;;;;7.40;5.55;;;20.00;99.90;;;;;;5030613;28;20042;-75
2022/09/06 01:35:54;;;;;;;7.80;6.32;;;19.90;99.90;;;;;;5030856;28;20121;-75
2022/09/06 01:38:20;;;;;;;6.70;5.20;;;20.00;99.90;;;;;;5032256;28;20033;-75
2022/09/06 01:40:45;;;;;;;7.57;5.68;;;20.00;99.90;;;;;;5033457;28;20487;-75
2022/09/06 01:43:17;;;;;;;12.02;5.93;;;20.00;99.90;;;;;;5046940;28;20064;-75
2022/09/06 01:46:01;;;;;;;11.05;5.63;;;20.00;99.90;;;;;;5033442;28;20052;-75
2022/09/06 01:48:38;;;;;;;;;;;20.20;99.90;;;;;;5040679;28;20121;-75
2022/09/06 01:51:12;;;;;;;12.10;6.00;;;20.30;99.90;;;;;;5046802;28;19912;-75
2022/09/06 01:54:15;;;;;;;;;;;20.40;99.90;;;;;;5050535;28;20029;-75
2022/09/06 01:57:07;;;;;;;11.18;6.15;;;20.40;99.90;;;;;;5035541;28;19917;-75
2022/09/06 01:59:52;;;;;;;6.22;4.60;;;20.00;99.90;;;;;;5039963;28;20032;-75
2022/09/06 02:02:22;;;;;;;9.95;5.38;;;19.80;99.90;;;;;;5038259;28;20054;-76
2022/09/06 02:04:53;;;;;;;8.05;5.07;;;19.70;99.90;;;;;;5041695;28;20391;-75
2022/09/06 02:07:24;;;;;;;10.07;5.13;;;19.80;99.90;;;;;;5030922;28;20033;-76
2022/09/06 02:09:58;;;;;;;9.13;6.15;;;19.90;99.90;;;;;;5042877;28;20064;-75
2022/09/06 02:12:24;;;;;;;;;;;19.90;99.90;;;;;;5045333;28;20045;-75
2022/09/06 02:14:56;;;;;;;7.18;5.38;;;20.00;99.90;;;;;;5031020;28;19909;-75
2022/09/06 02:17:31;;;;;;;11.93;5.90;;;20.00;99.90;;;;;;5032764;28;20080;-75
2022/09/06 02:20:13;;;;;;;8.45;5.18;;;20.00;99.90;;;;;;5035447;28;20102;-75
2022/09/06 02:22:42;;;;;;;8.32;6.63;;;20.00;99.90;;;;;;5031511;28;20403;-75
2022/09/06 02:25:10;;;;;;;8.93;6.32;;;20.10;99.90;;;;;;5044306;28;20025;-75
2022/09/06 02:27:36;;;;;;;9.77;6.45;;;20.00;99.90;;;;;;5032432;28;20037;-75
2022/09/06 02:30:03;;;;;;;7.07;5.88;;;20.10;99.90;;;;;;5041326;28;20087;-75
2022/09/06 02:32:36;;;;;;;6.45;5.43;;;20.10;99.90;;;;;;5033598;28;20041;-75
2022/09/06 02:35:10;;;;;;;6.80;4.97;;;20.10;99.90;;;;;;5045361;28;20025;-75
2022/09/06 02:37:36;;;;;;;7.43;5.47;;;19.90;99.90;;;;;;5051915;28;20037;-75
2022/09/06 02:40:02;;;;;;;7.30;5.15;;;19.80;99.90;;;;;;5034921;28;20040;-75
2022/09/06 02:42:28;;;;;;;7.72;5.55;;;19.70;99.90;;;;;;5031788;28;20510;-75
2022/09/06 02:44:54;;;;;;;6.53;5.22;;;19.60;99.90;;;;;;5045563;28;20029;-75
2022/09/06 02:47:20;;;;;;;10.05;7.28;;;19.50;99.90;;;;;;5049230;28;20399;-75
2022/09/06 02:49:45;;;;;;;7.38;5.68;;;19.50;99.90;;;;;;5037017;28;20364;-75
2022/09/06 02:52:11;;;;;;;9.82;5.65;;;19.40;99.90;;;;;;5052376;28;20062;-75
2022/09/06 02:54:36;;;;;;;9.45;6.20;;;19.40;99.90;;;;;;5034610;28;20052;-75
2022/09/06 02:57:02;;;;;;;8.18;6.15;;;19.30;99.90;;;;;;5047088;28;20040;-75
2022/09/06 02:59:28;;;;;;;9.82;5.82;;;19.30;99.90;;;;;;5039644;28;20063;-75
2022/09/06 03:01:54;;;;;;;8.32;5.13;;;19.30;99.90;;;;;;5038998;28;20033;-75
2022/09/06 03:04:19;;;;;;;7.38;5.75;;;19.20;99.90;;;;;;5027996;28;20041;-75
2022/09/06 03:06:45;;;;;;;9.30;6.15;;;19.20;99.90;;;;;;5045602;28;20036;-74
2022/09/06 03:09:11;;;;;;;8.15;5.32;;;19.10;99.90;;;;;;5032734;28;20116;-75
2022/09/06 03:11:36;;;;;;;8.60;6.43;;;19.10;99.90;;;;;;5031797;28;20045;-75
2022/09/06 03:14:02;;;;;;;8.80;5.82;;;19.00;99.90;;;;;;5039151;28;20029;-75
2022/09/06 03:16:28;;;;;;;6.93;5.97;;;19.10;99.90;;;;;;5026386;28;20030;-74
2022/09/06 03:18:54;;;;;;;9.60;6.53;;;19.10;99.90;;;;;;5022589;28;20388;-74
2022/09/06 03:21:19;;;;;;;7.82;6.15;;;19.20;99.90;;;;;;5031746;28;20108;-75
2022/09/06 03:23:45;;;;;;;7.97;5.70;;;19.20;99.90;;;;;;5039709;28;20035;-75
2022/09/06 03:26:11;;;;;;;7.47;5.30;;;19.20;99.90;;;;;;5026043;28;20018;-75
2022/09/06 03:28:37;;;;;;;8.75;5.88;;;19.20;99.90;;;;;;5024900;28;20033;-75
2022/09/06 03:31:03;;;;;;;9.23;6.35;;;19.30;99.90;;;;;;5026043;28;20025;-75
2022/09/06 03:33:29;;;;;;;7.18;6.03;;;19.50;99.90;;;;;;5036872;28;20111;-75
2022/09/06 03:35:57;;;;;;;7.15;5.88;;;19.30;99.90;;;;;;5029584;28;20511;-75
2022/09/06 03:38:25;;;;;;;9.43;5.97;;;19.30;99.90;;;;;;5036276;28;20036;-75
2022/09/06 03:40:51;;;;;;;7.82;6.35;;;19.30;99.90;;;;;;5042349;28;20560;-75
2022/09/06 03:43:18;;;;;;;6.80;5.32;;;19.10;99.90;;;;;;5044323;28;20031;-75
2022/09/06 03:45:51;;;;;;;7.97;6.47;;;19.00;99.90;;;;;;5041294;28;20029;-75
2022/09/06 03:48:18;;;;;;;7.10;5.90;;;19.00;99.90;;;;;;5039079;28;20037;-75
2022/09/06 03:50:45;;;;;;;7.35;5.57;;;19.00;99.90;;;;;;5040759;28;20433;-75
2022/09/06 03:53:11;;;;;;;7.05;5.57;;;19.00;99.90;;;;;;5036807;28;20038;-75
2022/09/06 03:55:38;;;;;;;7.18;5.93;;;19.00;99.90;;;;;;5028753;28;20029;-74
2022/09/06 03:58:03;;;;;;;8.07;6.15;;;19.00;99.90;;;;;;5029997;28;20026;-75
2022/09/06 04:00:29;;;;;;;9.23;5.60;;;19.00;99.90;;;;;;5030130;28;20056;-74
2022/09/06 04:02:55;;;;;;;8.77;6.07;;;18.90;99.90;;;;;;5039127;28;20025;-74
2022/09/06 04:05:20;;;;;;;9.55;5.93;;;18.80;99.90;;;;;;5030648;28;20025;-75
2022/09/06 04:07:46;;;;;;;8.57;6.50;;;18.70;99.90;;;;;;5028575;28;20037;-75
2022/09/06 04:10:11;;;;;;;8.80;5.90;;;18.90;99.90;;;;;;5023384;28;20107;-75
2022/09/06 04:12:37;;;;;;;10.77;6.63;;;19.00;99.90;;;;;;5022929;28;20045;-74
2022/09/06 04:15:03;;;;;;;9.45;6.45;;;19.00;99.90;;;;;;5031708;28;20025;-75
2022/09/06 04:17:29;;;;;;;7.65;5.72;;;19.10;99.90;;;;;;5040513;28;20036;-75
2022/09/06 04:19:54;;;;;;;9.60;6.43;;;19.10;99.90;;;;;;5036438;28;20037;-75
2022/09/06 04:22:20;;;;;;;10.20;6.25;;;19.10;99.90;;;;;;5022215;28;20030;-76
2022/09/06 04:24:46;;;;;;;8.45;6.28;;;19.10;99.90;;;;;;5023498;28;20032;-75
2022/09/06 04:27:11;;;;;;;8.23;6.32;;;19.30;99.90;;;;;;5030498;28;20101;-75
2022/09/06 04:29:37;;;;;;;15.80;6.88;;;19.40;99.90;;;;;;5025434;28;20034;-75
2022/09/06 04:32:03;;;;;;;7.38;5.80;;;19.50;99.90;;;;;;5026929;28;20037;-75
2022/09/06 04:34:28;;;;;;;7.38;6.28;;;19.60;99.90;;;;;;5033737;28;20061;-75
2022/09/06 04:36:54;;;;;;;10.20;6.25;;;19.50;99.90;;;;;;5033925;28;20037;-74
2022/09/06 04:39:20;;;;;;;7.93;6.18;;;19.50;99.90;;;;;;5029930;28;20063;-75
2022/09/06 04:41:46;;;;;;;7.45;6.18;;;19.50;99.90;;;;;;5026002;28;20115;-75
2022/09/06 04:44:11;;;;;;;8.15;6.10;;;19.50;99.90;;;;;;5026629;28;20029;-74
2022/09/06 04:46:40;;;;;;;15.20;6.43;;;19.50;99.90;;;;;;5028411;28;20038;-74
2022/09/06 04:49:06;;;;;;;8.55;6.43;;;19.40;99.90;;;;;;5039851;28;20471;-75
2022/09/06 04:51:32;;;;;;;8.73;6.93;;;19.40;99.90;;;;;;5034882;28;20187;-75
2022/09/06 04:53:57;;;;;;;8.07;6.18;;;19.40;99.90;;;;;;5035153;28;20052;-76
2022/09/06 04:56:25;;;;;;;9.32;6.15;;;19.50;99.90;;;;;;5041501;28;20034;-75
2022/09/06 04:58:52;;;;;;;7.78;6.53;;;19.40;99.90;;;;;;5034808;28;20033;-75
2022/09/06 05:01:19;;;;;;;8.27;5.38;;;19.30;99.90;;;;;;5026466;28;20161;-76
2022/09/06 05:03:45;;;;;;;10.90;5.95;;;19.40;99.90;;;;;;5032999;28;20082;-75
2022/09/06 05:06:20;;;;;;;8.43;5.75;;;19.50;99.90;;;;;;5044471;28;20033;-75
2022/09/06 05:08:46;;;;;;;7.95;5.45;;;19.40;99.90;;;;;;5031924;28;20491;-75
2022/09/06 05:11:12;;;;;;;9.85;6.03;;;19.40;99.90;;;;;;5030713;28;20060;-75
2022/09/06 05:13:38;;;;;;;7.05;5.68;;;19.30;99.90;;;;;;5027175;28;20562;-76
2022/09/06 05:16:06;;;;;;;8.05;6.20;;;19.30;99.90;;;;;;5030601;28;20037;-75
2022/09/06 05:18:32;;;;;;;9.85;6.05;;;19.30;99.90;;;;;;5044730;28;20620;-75
2022/09/06 05:20:58;;;;;;;10.57;5.95;;;19.30;99.90;;;;;;5027675;28;20068;-75
2022/09/06 05:23:25;;;;;;;10.07;6.13;;;19.40;99.90;;;;;;5029618;28;20091;-75
2022/09/06 05:25:51;;;;;;;7.28;5.63;;;19.30;99.90;;;;;;5025319;28;20061;-77
2022/09/06 05:28:18;;;;;;;21.65;6.65;;;19.10;99.90;;;;;;5044105;28;20431;-76
2022/09/06 05:30:43;;;;;;;9.50;6.15;;;19.00;99.90;;;;;;5026174;28;20021;-77
2022/09/06 05:33:11;;;;;;;8.25;6.03;;;18.90;99.90;;;;;;5027814;28;20045;-77
2022/09/06 05:35:37;;;;;;;8.38;5.95;;;19.00;99.90;;;;;;5042004;28;20107;-77
2022/09/06 05:38:02;;;;;;;8.68;5.75;;;19.00;99.90;;;;;;5025545;28;20420;-76
2022/09/06 05:40:28;;;;;;;9.13;6.63;;;19.00;99.90;;;;;;5025047;28;20034;-77
2022/09/06 05:42:54;;;;;;;8.50;5.78;;;19.00;99.90;;;;;;5030267;28;20043;-78
2022/09/06 05:45:19;;;;;;;10.40;6.10;;;19.10;99.90;;;;;;5041690;28;20108;-74
2022/09/06 05:47:45;;;;;;;11.25;5.90;;;19.20;99.90;;;;;;5027225;28;20108;-76
2022/09/06 05:50:11;;;;;;;9.40;5.97;;;19.40;99.90;;;;;;5026760;28;20081;-76
2022/09/06 05:52:38;;;;;;;10.25;5.97;;;19.30;99.90;;;;;;5043421;28;20045;-76
2022/09/06 05:55:04;;;;;;;9.82;7.03;;;19.40;99.90;;;;;;5038418;28;20029;-77
2022/09/06 05:57:30;;;;;;;8.05;6.30;;;19.10;99.90;;;;;;5036186;28;20029;-77
2022/09/06 05:59:56;;;;;;;9.63;6.80;;;19.20;99.90;;;;;;5038187;28;20044;-76
2022/09/06 06:02:22;;;;;;;9.65;6.28;;;19.20;99.90;;;;;;5024963;28;20033;-76
2022/09/06 06:04:48;;;;;;;10.82;6.53;;;19.30;99.90;;;;;;5032955;28;20482;-76
2022/09/06 06:07:14;;;;;;;9.63;5.93;;;19.30;99.90;;;;;;5035888;28;20407;-76
2022/09/06 06:09:41;;;;;;;7.72;5.90;;;19.50;99.90;;;;;;5034100;28;20158;-76
2022/09/06 06:12:07;;;;;;;7.03;5.65;;;19.60;99.90;;;;;;5024516;28;20069;-77
2022/09/06 06:14:33;;;;;;;7.93;6.13;;;19.70;99.90;;;;;;5024999;28;20040;-77
2022/09/06 06:16:59;;;;;;;7.65;5.97;;;19.70;99.90;;;;;;5024259;28;20033;-76
2022/09/06 06:19:25;;;;;;;9.38;6.07;;;19.70;99.90;;;;;;5023574;28;20073;-76
2022/09/06 06:21:51;;;;;;;7.60;6.00;;;19.70;99.90;;;;;;5035147;28;20045;-77
2022/09/06 06:24:17;;;;;;;7.55;6.18;;;19.80;99.90;;;;;;5024682;28;20029;-77
2022/09/06 06:26:43;;;;;;;10.38;6.47;;;19.80;99.90;;;;;;5027890;28;20036;-76
2022/09/06 06:29:09;;;;;;;7.97;5.97;;;19.80;99.90;;;;;;5028169;28;20060;-77
2022/09/06 06:31:36;;;;;;;9.45;5.80;;;19.90;99.90;;;;;;5043604;28;20040;-77
2022/09/06 06:34:02;;;;;;;7.50;6.07;;;19.90;99.90;;;;;;5030614;28;20033;-76
2022/09/06 06:36:30;;;;;;;8.18;6.15;;;20.00;99.90;;;;;;5025392;28;20555;-77
2022/09/06 06:38:57;;;;;;;8.02;5.95;;;20.20;99.90;;;;;;5041715;28;20036;-75
2022/09/06 06:41:25;;;;;;;7.20;5.72;;;20.30;99.90;;;;;;5046611;28;20040;-76
2022/09/06 06:43:55;;;;;;;12.63;5.55;;;20.20;99.90;;;;;;5032754;28;20076;-76
2022/09/06 06:46:26;;;;;;;10.43;6.40;;;20.30;99.90;;;;;;5027639;28;20033;-76
2022/09/06 06:48:55;;;;;;;8.07;6.30;;;20.50;99.90;;;;;;5033506;28;20091;-77
2022/09/06 06:51:31;;;;;;;7.55;6.03;;;20.50;99.90;;;;;;5029176;28;20037;-76
2022/09/06 06:53:57;;;;;;;8.95;6.20;;;20.60;99.90;;;;;;5028835;28;20035;-76
2022/09/06 06:56:27;;;;;;;9.30;6.32;;;20.60;99.90;;;;;;5028126;28;20034;-78
2022/09/06 06:58:56;;;;;;;6.97;5.43;;;20.70;99.90;;;;;;5023925;28;20036;-75
2022/09/06 07:01:23;;;;;;;7.57;5.85;;;20.80;99.90;;;;;;5028556;28;20120;-76
2022/09/06 07:03:49;;;;;;;8.27;6.03;;;21.00;99.90;;;;;;5033173;28;20123;-76
2022/09/06 07:06:16;;;;;;;9.57;5.60;;;21.00;99.90;;;;;;5029355;28;20471;-76
2022/09/06 07:08:42;;;;;;;7.90;4.75;;;21.10;99.90;;;;;;5030702;28;20036;-76
2022/09/06 07:11:10;;;;;;;8.77;5.47;;;21.30;99.90;;;;;;5035033;28;20049;-77
2022/09/06 07:13:36;;;;;;;9.02;5.78;;;22.60;99.90;;;;;;5029033;28;20033;-77
2022/09/06 07:16:14;;;;;;;8.63;5.90;;;24.00;99.90;;;;;;5032154;28;20040;-75
2022/09/06 07:18:41;;;;;;;7.43;4.90;;;25.20;99.60;;;;;;5044476;28;20391;-76
2022/09/06 07:21:25;;;;;;;9.18;5.03;;;25.00;98.90;;;;;;5032445;28;20029;-76
2022/09/06 07:23:52;;;;;;;10.88;5.80;;;23.60;99.90;;;;;;5024724;28;20029;-77
2022/09/06 07:26:21;;;;;;;6.47;5.20;;;22.70;99.90;;;;;;5026202;28;20439;-75
2022/09/06 07:28:46;;;;;;;8.18;5.50;;;22.00;99.90;;;;;;5040950;28;20048;-75
2022/09/06 07:31:13;;;;;;;7.10;5.78;;;21.60;99.90;;;;;;5040313;28;20578;-75
2022/09/06 07:33:39;;;;;;;84.22;13.52;;;21.50;99.90;;;;;;5027737;28;20033;-75
2022/09/06 07:36:06;;;;;;;12.82;6.75;;;21.40;99.90;;;;;;5026811;28;20951;-75
2022/09/06 07:38:33;;;;;;;7.78;6.00;;;21.20;99.90;;;;;;5025716;28;20600;-74
2022/09/06 07:41:01;;;;;;;10.20;6.10;;;21.10;99.90;;;;;;5026628;28;20033;-76
2022/09/06 07:43:28;;;;;;;9.68;6.03;;;21.20;99.90;;;;;;5027871;28;20112;-78
2022/09/06 07:46:03;;;;;;;13.13;6.53;;;21.40;99.90;;;;;;5027939;28;20111;-75
2022/09/06 07:48:30;;;;;;;16.42;6.13;;;21.50;99.90;;;;;;5029526;28;20022;-76
2022/09/06 07:51:21;;;;;;;7.60;5.85;;;21.40;99.90;;;;;;5025438;28;20540;-76
2022/09/06 07:53:54;;;;;;;7.10;5.85;;;21.50;99.90;;;;;;5031020;28;20067;-74
2022/09/06 07:56:21;;;;;;;8.43;5.57;;;21.60;99.90;;;;;;5028363;28;20049;-75
2022/09/06 07:58:47;;;;;;;8.02;5.53;;;21.60;99.90;;;;;;5034732;28;20029;-75
2022/09/06 08:01:17;;;;;;;13.10;6.53;;;21.70;99.90;;;;;;5037497;28;20033;-74
2022/09/06 08:03:44;;;;;;;7.10;6.28;;;21.80;99.90;;;;;;5042202;28;20029;-74
2022/09/06 08:06:10;;;;;;;10.95;6.72;;;21.80;99.90;;;;;;5042017;28;20171;-76
2022/09/06 08:08:36;;;;;;;8.70;5.70;;;21.90;99.90;;;;;;5045454;28;20112;-73
2022/09/06 08:11:02;;;;;;;15.88;6.05;;;22.00;99.90;;;;;;5041317;28;20711;-74
2022/09/06 08:13:28;;;;;;;9.85;6.07;;;22.20;99.90;;;;;;5049124;28;20087;-75
2022/09/06 08:16:01;;;;;;;17.23;6.70;;;22.10;99.90;;;;;;5045123;28;20044;-74
2022/09/06 08:18:27;;;;;;;8.55;5.88;;;22.00;99.90;;;;;;5038986;28;20032;-75
2022/09/06 08:20:53;;;;;;;8.68;6.00;;;22.10;99.90;;;;;;5029978;28;20041;-75
2022/09/06 08:23:18;;;;;;;9.38;6.18;;;22.20;99.90;;;;;;5032666;28;20456;-74
2022/09/06 08:25:54;;;;;;;7.50;5.53;;;22.30;99.90;;;;;;5032971;28;20498;-74
2022/09/06 08:28:19;;;;;;;9.32;5.63;;;22.40;99.90;;;;;;5034258;28;20428;-74
2022/09/06 08:30:45;;;;;;;9.98;5.90;;;22.50;99.90;;;;;;5030106;28;20064;-75
2022/09/06 08:33:11;;;;;;;7.25;6.10;;;22.60;99.90;;;;;;5041589;28;20590;-74
2022/09/06 08:35:36;;;;;;;10.40;5.68;;;22.70;99.90;;;;;;5049484;28;20379;-75
2022/09/06 08:38:04;;;;;;;11.82;6.57;;;22.80;99.90;;;;;;5048745;28;20398;-75
2022/09/06 08:40:30;;;;;;;27.95;5.88;;;22.90;99.90;;;;;;5046118;28;20136;-74
2022/09/06 08:42:57;;;;;;;8.63;6.07;;;22.80;99.90;;;;;;5029869;28;20124;-75
2022/09/06 08:45:23;;;;;;;6.95;5.72;;;22.80;99.90;;;;;;5030070;28;20072;-75
2022/09/06 08:47:51;;;;;;;8.32;5.63;;;22.70;99.90;;;;;;5029898;28;20048;-76
2022/09/06 08:50:17;;;;;;;8.05;6.55;;;22.70;99.90;;;;;;5030599;28;20667;-75
2022/09/06 08:52:54;;;;;;;8.35;5.72;;;22.70;99.90;;;;;;5048444;28;20060;-75
2022/09/06 08:55:41;;;;;;;7.97;5.70;;;23.10;99.90;;;;;;5048326;28;20109;-75
2022/09/06 08:58:07;;;;;;;7.43;5.55;;;25.50;99.40;;;;;;5035295;28;20037;-73
2022/09/06 09:00:35;;;;;;;8.63;5.70;;;27.00;97.00;;;;;;5029759;28;20032;-73
2022/09/06 09:03:22;;;;;;;8.85;4.78;;;27.90;96.50;;;;;;5029131;28;20045;-72
2022/09/06 09:05:52;;;;;;;5.85;4.65;;;28.80;95.30;;;;;;5043767;28;20552;-73
2022/09/06 09:08:31;;;;;;;7.82;4.70;;;29.10;94.60;;;;;;5040286;28;20116;-72
2022/09/06 09:11:03;;;;;;;6.60;4.82;;;29.40;94.70;;;;;;5035228;28;20053;-73
2022/09/06 09:13:45;;;;;;;6.80;5.18;;;29.00;94.10;;;;;;5047313;28;20037;-73
2022/09/06 09:16:12;;;;;;;7.00;5.50;;;29.30;94.70;;;;;;5036120;28;20539;-73
2022/09/06 09:18:41;;;;;;;6.35;5.38;;;28.80;95.10;;;;;;5029106;28;20036;-73
2022/09/06 09:21:08;;;;;;;11.02;6.10;;;28.60;95.10;;;;;;5028513;28;20396;-73
2022/09/06 09:23:34;;;;;;;6.93;5.68;;;28.60;94.80;;;;;;5033697;28;20025;-73
2022/09/06 09:26:04;;;;;;;8.38;5.10;;;28.60;94.80;;;;;;5035941;28;20647;-73
2022/09/06 09:28:30;;;;;;;8.50;5.57;;;29.20;94.90;;;;;;5037433;28;20034;-73
2022/09/06 09:30:56;;;;;;;9.90;5.57;;;29.80;94.30;;;;;;5032341;28;20502;-73
2022/09/06 09:33:32;;;;;;;7.13;5.25;;;29.10;94.00;;;;;;5043344;28;20041;-73
2022/09/06 09:36:01;;;;;;;8.77;4.82;;;29.00;94.60;;;;;;5029655;28;20112;-73
2022/09/06 09:38:38;;;;;;;8.32;5.60;;;29.00;94.30;;;;;;5029287;28;20040;-73
2022/09/06 09:41:06;;;;;;;11.57;5.25;;;28.30;94.50;;;;;;5038935;28;20052;-73
2022/09/06 09:43:34;;;;;;;7.88;5.90;;;27.50;94.70;;;;;;5032433;28;20100;-73
2022/09/06 09:46:21;;;;;;;7.60;5.15;;;26.50;95.60;;;;;;5028213;28;20131;-73
2022/09/06 09:49:01;;;;;;;7.63;5.40;;;26.10;96.10;;;;;;5028200;28;20529;-73
2022/09/06 09:51:28;;;;;;;7.38;5.03;;;25.30;96.60;;;;;;5030966;28;20095;-73
2022/09/06 09:54:00;;;;;;;6.45;4.78;;;25.50;98.30;;;;;;5029327;28;20039;-73
2022/09/06 09:56:37;;;;;;;7.25;5.75;;;25.60;98.40;;;;;;5029498;28;20033;-73
2022/09/06 09:59:14;;;;;;;7.15;5.35;;;25.50;97.60;;;;;;5028786;28;20494;-73
2022/09/06 10:01:40;;;;;;;6.88;5.28;;;25.50;97.80;;;;;;5034141;28;20025;-73
2022/09/06 10:04:09;;;;;;;6.90;4.80;;;25.60;97.50;;;;;;5035581;28;20099;-73
2022/09/06 10:06:35;;;;;;;7.85;5.70;;;25.50;97.20;;;;;;5046162;28;20044;-73
2022/09/06 10:09:21;;;;;;;8.90;5.78;;;25.40;97.00;;;;;;5029167;28;20029;-73
2022/09/06 10:11:58;;;;;;;8.57;5.25;;;25.50;97.40;;;;;;5031480;28;20408;-73
2022/09/06 10:14:38;;;;;;;7.50;5.60;;;25.60;97.00;;;;;;5048690;28;20035;-73
2022/09/06 10:17:05;;;;;;;9.23;5.18;;;25.70;96.90;;;;;;5028299;28;20037;-73
2022/09/06 10:19:40;;;;;;;11.43;4.88;;;25.80;97.40;;;;;;5028619;28;20037;-73
2022/09/06 10:22:29;;;;;;;6.88;5.05;;;26.00;97.50;;;;;;5028001;28;20068;-73
2022/09/06 10:25:13;;;;;;;6.10;5.05;;;26.00;97.10;;;;;;5038600;28;20037;-74
2022/09/06 10:28:09;;;;;;;8.90;5.15;;;26.40;97.20;;;;;;5046223;28;20386;-74
2022/09/06 10:30:58;;;;;;;8.88;5.32;;;26.40;96.90;;;;;;5030366;28;20419;-73
2022/09/06 10:33:45;;;;;;;9.57;5.57;;;26.40;97.00;;;;;;5038982;28;20054;-73
2022/09/06 10:36:18;;;;;;;7.53;6.03;;;26.20;96.70;;;;;;5035142;28;20070;-73
2022/09/06 10:38:55;;;;;;;7.20;5.13;;;26.40;97.30;;;;;;5048383;28;20511;-73
2022/09/06 10:41:20;;;;;;;9.07;5.20;;;26.80;97.60;;;;;;5043019;28;20041;-73
2022/09/06 10:43:56;;;;;;;6.90;5.38;;;26.80;96.70;;;;;;5031256;28;20521;-73
2022/09/06 10:46:25;;;;;;;7.82;5.20;;;26.60;96.00;;;;;;5028188;28;20037;-73
2022/09/06 10:48:54;;;;;;;8.35;5.47;;;26.60;96.50;;;;;;5034271;28;20114;-74
2022/09/06 10:51:31;;;;;;;7.25;5.18;;;26.70;97.10;;;;;;5035513;28;20491;-73
2022/09/06 10:54:10;;;;;;;10.00;4.88;;;27.00;96.50;;;;;;5030638;28;20036;-73
2022/09/06 10:56:57;;;;;;;9.48;6.05;;;27.10;96.00;;;;;;5028866;28;20060;-73
2022/09/06 10:59:45;;;;;;;6.57;4.82;;;27.10;95.50;;;;;;5026817;28;20041;-73
2022/09/06 11:02:14;;;;;;;7.57;4.85;;;27.20;96.10;;;;;;5040239;28;20028;-73
2022/09/06 11:04:41;;;;;;;10.10;5.10;;;27.40;95.40;;;;;;5027723;28;20450;-74
2022/09/06 11:07:19;;;;;;;7.63;4.55;;;27.50;95.70;;;;;;5025589;28;20041;-74
2022/09/06 11:09:50;;;;;;;8.10;4.80;;;27.60;96.20;;;;;;5026704;28;20480;-73
2022/09/06 11:12:28;;;;;;;7.20;4.93;;;27.60;95.20;;;;;;5034482;28;20045;-73
2022/09/06 11:14:54;;;;;;;7.55;4.70;;;27.40;94.80;;;;;;5047366;28;20426;-73
2022/09/06 11:18:19;;;;;;;6.15;4.63;;;27.20;94.60;;;;;;5030478;28;20037;-73
2022/09/06 11:21:02;;;;;;;7.68;4.70;;;27.40;95.20;;;;;;5009280;28;20439;-73
2022/09/06 11:24:05;;;;;;;7.45;5.13;;;27.60;95.60;;;;;;5034333;28;20427;-73
2022/09/06 11:26:39;;;;;;;7.05;4.90;;;27.50;94.60;;;;;;5033625;28;20047;-73
2022/09/06 11:29:17;;;;;;;5.68;4.38;;;27.80;95.80;;;;;;5031994;28;20487;-73
2022/09/06 11:31:56;;;;;;;6.32;4.57;;;27.50;94.40;;;;;;5030182;28;20444;-73
2022/09/06 11:34:26;;;;;;;7.47;5.00;;;27.70;95.20;;;;;;5036621;28;20090;-73
2022/09/06 11:37:03;;;;;;;8.02;4.15;;;27.50;95.60;;;;;;5035230;28;20072;-73
2022/09/06 11:39:33;;;;;;;9.23;4.65;;;28.10;95.70;;;;;;5026699;28;20072;-73
2022/09/06 11:41:59;;;;;;;9.20;4.70;;;28.10;94.70;;;;;;5026910;28;20025;-73
2022/09/06 11:44:52;;;;;;;9.60;4.55;;;27.50;94.40;;;;;;5027194;28;20029;-74
2022/09/06 11:47:39;;;;;;;6.43;4.95;;;27.70;95.70;;;;;;5041033;28;20075;-73
2022/09/06 11:50:20;;;;;;;8.38;3.90;;;27.50;94.60;;;;;;5044542;28;20383;-73
2022/09/06 11:53:03;;;;;;;8.43;4.90;;;27.90;96.00;;;;;;5040447;28;20084;-73
2022/09/06 11:55:34;;;;;;;6.07;4.03;;;28.20;95.20;;;;;;5038097;28;20394;-74
2022/09/06 11:58:03;;;;;;;6.10;3.78;;;28.00;94.50;;;;;;5032234;28;20262;-74
2022/09/06 12:00:29;;;;;;;5.03;4.03;;;28.10;95.30;;;;;;5043915;28;20044;-73
2022/09/06 12:02:55;;;;;;;9.23;4.93;;;27.90;94.30;;;;;;5026891;28;20043;-74
2022/09/06 12:05:26;;;;;;;7.85;4.13;;;28.20;94.40;;;;;;5035111;28;20033;-73
2022/09/06 12:08:30;;;;;;;6.05;3.85;;;27.90;93.90;;;;;;5038954;28;20029;-74
2022/09/06 12:11:01;;;;;;;6.28;3.60;;;28.00;94.20;;;;;;5045310;28;20377;-74
2022/09/06 12:13:45;;;;;;;10.30;3.90;;;28.50;94.20;;;;;;5031508;28;20040;-73
2022/09/06 12:16:12;;;;;;;6.72;3.60;;;28.80;93.30;;;;;;5033122;28;20025;-73
2022/09/06 12:18:47;;;;;;;5.78;3.83;;;28.90;93.80;;;;;;5026629;28;20071;-74
2022/09/06 12:21:34;;;;;;;26.10;4.10;;;29.20;93.70;;;;;;5026006;28;20029;-74
2022/09/06 12:24:01;;;;;;;5.85;3.13;;;29.50;93.70;;;;;;5037041;28;20056;-73
2022/09/06 12:26:51;;;;;;;4.90;3.33;;;29.30;92.40;;;;;;5033836;28;20025;-74
2022/09/06 12:29:27;;;;;;;9.10;3.88;;;29.40;93.30;;;;;;5046718;28;20094;-74
2022/09/06 12:31:56;;;;;;;4.47;3.22;;;29.40;93.40;;;;;;5033609;28;20033;-74
2022/09/06 12:34:28;;;;;;;7.18;3.50;;;29.40;92.70;;;;;;5046858;28;20039;-74
2022/09/06 12:37:03;;;;;;;5.25;3.00;;;29.50;92.60;;;;;;5044749;28;20035;-74
2022/09/06 12:39:29;;;;;;;6.18;3.72;;;29.40;92.30;;;;;;5025931;28;20032;-74
2022/09/06 12:41:59;;;;;;;6.70;3.53;;;29.50;92.50;;;;;;5025579;28;20112;-74
2022/09/06 12:44:40;;;;;;;6.03;3.20;;;29.60;92.40;;;;;;5039819;28;20485;-74
2022/09/06 12:47:28;;;;;;;5.38;3.47;;;29.50;92.40;;;;;;5027352;28;20040;-74
2022/09/06 12:50:12;;;;;;;7.10;3.33;;;29.50;92.80;;;;;;5049282;28;20032;-74
2022/09/06 12:53:16;;;;;;;8.55;3.60;;;29.50;92.50;;;;;;5038241;28;20682;-74
2022/09/06 12:55:42;;;;;;;6.97;3.85;;;29.50;93.60;;;;;;5032978;28;20036;-74
2022/09/06 12:58:10;;;;;;;7.03;3.92;;;29.70;92.80;;;;;;5037894;28;20021;-74
2022/09/06 13:00:42;;;;;;;6.13;3.83;;;29.80;92.60;;;;;;5029685;28;20040;-74
2022/09/06 13:03:33;;;;;;;7.55;3.63;;;29.60;92.50;;;;;;5031017;28;20396;-74
2022/09/06 13:06:03;;;;;;;5.13;3.13;;;29.70;92.50;;;;;;5036583;28;20037;-73